sensor_id;sensor_type;location;lat;lon;timestamp;temperature;humidity
3912;DHT22;1971;51.778;10.330;2023-02-11T00:01:30;1.00;99.90
3912;DHT22;1971;51.778;10.330;2023-02-11T00:04:03;1.00;99.90
3912;DHT22;1971;51.778;10.330;2023-02-11T00:06:35;0.80;99.90
3912;DHT22;1971;51.778;10.330;2023-02-11T00:09:05;1.10;99.90
3912;DHT22;1971;51.778;10.330;2023-02-11T00:11:35;0.70;99.90
3912;DHT22;1971;51.778;10.330;2023-02-11T00:14:06;0.70;99.90
3912;DHT22;1971;51.778;10.330;2023-02-11T00:16:40;0.90;99.90
3912;DHT22;1971;51.778;10.330;2023-02-11T00:19:11;0.80;99.90
3912;DHT22;1971;51.778;10.330;2023-02-11T00:21:41;0.70;99.90
3912;DHT22;1971;51.778;10.330;2023-02-11T00:24:11;0.80;99.90
3912;DHT22;1971;51.778;10.330;2023-02-11T00:26:41;0.70;99.90
3912;DHT22;1971;51.778;10.330;2023-02-11T00:29:11;0.80;99.90
3912;DHT22;1971;51.778;10.330;2023-02-11T00:31:43;0.60;99.90
3912;DHT22;1971;51.778;10.330;2023-02-11T00:34:14;1.10;99.90
3912;DHT22;1971;51.778;10.330;2023-02-11T00:36:44;0.80;99.90
3912;DHT22;1971;51.778;10.330;2023-02-11T00:39:16;0.80;99.90
3912;DHT22;1971;51.778;10.330;2023-02-11T00:41:45;1.20;99.90
3912;DHT22;1971;51.778;10.330;2023-02-11T00:44:16;0.80;99.90
3912;DHT22;1971;51.778;10.330;2023-02-11T00:46:50;0.80;99.90
3912;DHT22;1971;51.778;10.330;2023-02-11T00:49:20;0.60;99.90
3912;DHT22;1971;51.778;10.330;2023-02-11T00:51:51;1.20;99.90
3912;DHT22;1971;51.778;10.330;2023-02-11T00:54:21;1.00;99.90
3912;DHT22;1971;51.778;10.330;2023-02-11T00:56:53;1.20;99.90
3912;DHT22;1971;51.778;10.330;2023-02-11T00:59:24;1.20;99.90
3912;DHT22;1971;51.778;10.330;2023-02-11T01:01:57;1.00;99.90
3912;DHT22;1971;51.778;10.330;2023-02-11T01:04:26;1.10;99.90
3912;DHT22;1971;51.778;10.330;2023-02-11T01:06:57;0.90;99.90
3912;DHT22;1971;51.778;10.330;2023-02-11T01:09:27;0.90;99.90
3912;DHT22;1971;51.778;10.330;2023-02-11T01:11:57;1.20;99.90
3912;DHT22;1971;51.778;10.330;2023-02-11T01:14:27;1.00;99.90
3912;DHT22;1971;51.778;10.330;2023-02-11T01:17:00;1.00;99.90
3912;DHT22;1971;51.778;10.330;2023-02-11T01:19:31;1.00;99.90
3912;DHT22;1971;51.778;10.330;2023-02-11T01:22:00;0.80;99.90
3912;DHT22;1971;51.778;10.330;2023-02-11T01:24:31;1.10;99.90
3912;DHT22;1971;51.778;10.330;2023-02-11T01:27:01;1.00;99.90
3912;DHT22;1971;51.778;10.330;2023-02-11T01:29:31;1.10;99.90
3912;DHT22;1971;51.778;10.330;2023-02-11T01:32:04;0.90;99.90
3912;DHT22;1971;51.778;10.330;2023-02-11T01:34:35;1.00;99.90
3912;DHT22;1971;51.778;10.330;2023-02-11T01:37:05;1.30;99.90
3912;DHT22;1971;51.778;10.330;2023-02-11T01:39:36;0.90;99.90
3912;DHT22;1971;51.778;10.330;2023-02-11T01:42:06;1.10;99.90
3912;DHT22;1971;51.778;10.330;2023-02-11T01:44:40;0.80;99.90
3912;DHT22;1971;51.778;10.330;2023-02-11T01:47:13;1.40;99.90
3912;DHT22;1971;51.778;10.330;2023-02-11T01:49:49;0.90;99.90
3912;DHT22;1971;51.778;10.330;2023-02-11T01:52:24;1.20;99.90
3912;DHT22;1971;51.778;10.330;2023-02-11T01:54:57;0.90;99.90
3912;DHT22;1971;51.778;10.330;2023-02-11T01:57:44;0.90;99.90
3912;DHT22;1971;51.778;10.330;2023-02-11T02:00:19;1.00;99.90
3912;DHT22;1971;51.778;10.330;2023-02-11T02:02:57;1.20;99.90
3912;DHT22;1971;51.778;10.330;2023-02-11T02:05:34;1.10;99.90
3912;DHT22;1971;51.778;10.330;2023-02-11T02:08:13;0.80;99.90
3912;DHT22;1971;51.778;10.330;2023-02-11T02:10:49;1.10;99.90
3912;DHT22;1971;51.778;10.330;2023-02-11T02:13:23;0.90;99.90
3912;DHT22;1971;51.778;10.330;2023-02-11T02:15:55;0.90;99.90
3912;DHT22;1971;51.778;10.330;2023-02-11T02:18:36;1.20;99.90
3912;DHT22;1971;51.778;10.330;2023-02-11T02:21:29;0.90;99.90
3912;DHT22;1971;51.778;10.330;2023-02-11T02:27:39;1.30;99.90
3912;DHT22;1971;51.778;10.330;2023-02-11T02:33:24;1.20;99.90
3912;DHT22;1971;51.778;10.330;2023-02-11T02:36:04;0.80;99.90
3912;DHT22;1971;51.778;10.330;2023-02-11T02:38:39;0.90;99.90
3912;DHT22;1971;51.778;10.330;2023-02-11T02:41:11;1.00;99.90
3912;DHT22;1971;51.778;10.330;2023-02-11T02:43:45;1.10;99.90
3912;DHT22;1971;51.778;10.330;2023-02-11T02:46:18;1.20;99.90
3912;DHT22;1971;51.778;10.330;2023-02-11T02:48:52;1.10;99.90
3912;DHT22;1971;51.778;10.330;2023-02-11T02:51:44;1.00;99.90
3912;DHT22;1971;51.778;10.330;2023-02-11T02:54:42;1.00;99.90
3912;DHT22;1971;51.778;10.330;2023-02-11T02:57:28;0.90;99.90
3912;DHT22;1971;51.778;10.330;2023-02-11T03:00:20;1.00;99.90
3912;DHT22;1971;51.778;10.330;2023-02-11T03:03:00;0.90;99.90
3912;DHT22;1971;51.778;10.330;2023-02-11T03:05:46;0.80;99.90
3912;DHT22;1971;51.778;10.330;2023-02-11T03:08:24;1.10;99.90
3912;DHT22;1971;51.778;10.330;2023-02-11T03:10:55;0.80;99.90
3912;DHT22;1971;51.778;10.330;2023-02-11T03:13:30;1.20;99.90
3912;DHT22;1971;51.778;10.330;2023-02-11T03:16:05;1.00;99.90
3912;DHT22;1971;51.778;10.330;2023-02-11T03:18:40;0.80;99.90
3912;DHT22;1971;51.778;10.330;2023-02-11T03:21:17;1.10;99.90
3912;DHT22;1971;51.778;10.330;2023-02-11T03:23:52;0.90;99.90
3912;DHT22;1971;51.778;10.330;2023-02-11T03:26:27;1.10;99.90
3912;DHT22;1971;51.778;10.330;2023-02-11T03:29:01;1.20;99.90
3912;DHT22;1971;51.778;10.330;2023-02-11T03:31:38;1.00;99.90
3912;DHT22;1971;51.778;10.330;2023-02-11T03:34:13;1.00;99.90
3912;DHT22;1971;51.778;10.330;2023-02-11T03:36:50;1.10;99.90
3912;DHT22;1971;51.778;10.330;2023-02-11T03:39:24;0.90;99.90
3912;DHT22;1971;51.778;10.330;2023-02-11T03:41:55;0.90;99.90
3912;DHT22;1971;51.778;10.330;2023-02-11T03:44:32;1.10;99.90
3912;DHT22;1971;51.778;10.330;2023-02-11T03:47:06;0.90;99.90
3912;DHT22;1971;51.778;10.330;2023-02-11T03:49:38;1.00;99.90
3912;DHT22;1971;51.778;10.330;2023-02-11T03:52:13;1.20;99.90
3912;DHT22;1971;51.778;10.330;2023-02-11T03:54:45;1.10;99.90
3912;DHT22;1971;51.778;10.330;2023-02-11T03:57:17;0.90;99.90
3912;DHT22;1971;51.778;10.330;2023-02-11T03:59:52;0.90;99.90
3912;DHT22;1971;51.778;10.330;2023-02-11T04:02:24;1.10;99.90
3912;DHT22;1971;51.778;10.330;2023-02-11T04:04:56;1.20;99.90
3912;DHT22;1971;51.778;10.330;2023-02-11T04:07:28;0.90;99.90
3912;DHT22;1971;51.778;10.330;2023-02-11T04:09:58;1.10;99.90
3912;DHT22;1971;51.778;10.330;2023-02-11T04:12:28;1.20;99.90
3912;DHT22;1971;51.778;10.330;2023-02-11T04:14:58;1.10;99.90
3912;DHT22;1971;51.778;10.330;2023-02-11T04:17:28;1.00;99.90
3912;DHT22;1971;51.778;10.330;2023-02-11T04:19:58;1.40;99.90
3912;DHT22;1971;51.778;10.330;2023-02-11T04:22:31;1.00;99.90
3912;DHT22;1971;51.778;10.330;2023-02-11T04:25:02;1.20;99.90
3912;DHT22;1971;51.778;10.330;2023-02-11T04:27:32;1.30;99.90
3912;DHT22;1971;51.778;10.330;2023-02-11T04:30:04;1.30;99.90
3912;DHT22;1971;51.778;10.330;2023-02-11T04:32:34;1.20;99.90
3912;DHT22;1971;51.778;10.330;2023-02-11T04:35:05;1.10;99.90
3912;DHT22;1971;51.778;10.330;2023-02-11T04:37:38;1.30;99.90
3912;DHT22;1971;51.778;10.330;2023-02-11T04:40:09;1.40;99.90
3912;DHT22;1971;51.778;10.330;2023-02-11T04:42:39;1.10;99.90
3912;DHT22;1971;51.778;10.330;2023-02-11T04:45:09;1.10;99.90
3912;DHT22;1971;51.778;10.330;2023-02-11T04:47:40;1.10;99.90
3912;DHT22;1971;51.778;10.330;2023-02-11T04:50:10;1.10;99.90
3912;DHT22;1971;51.778;10.330;2023-02-11T04:52:43;1.00;99.90
3912;DHT22;1971;51.778;10.330;2023-02-11T04:55:13;1.10;99.90
3912;DHT22;1971;51.778;10.330;2023-02-11T04:57:43;1.20;99.90
3912;DHT22;1971;51.778;10.330;2023-02-11T05:00:15;1.10;99.90
3912;DHT22;1971;51.778;10.330;2023-02-11T05:02:45;1.40;99.90
3912;DHT22;1971;51.778;10.330;2023-02-11T05:05:15;1.20;99.90
3912;DHT22;1971;51.778;10.330;2023-02-11T05:07:49;1.40;99.90
3912;DHT22;1971;51.778;10.330;2023-02-11T05:10:19;1.40;99.90
3912;DHT22;1971;51.778;10.330;2023-02-11T05:12:49;1.20;99.90
3912;DHT22;1971;51.778;10.330;2023-02-11T05:15:21;1.20;99.90
3912;DHT22;1971;51.778;10.330;2023-02-11T05:17:52;1.30;99.90
3912;DHT22;1971;51.778;10.330;2023-02-11T05:20:22;1.30;99.90
3912;DHT22;1971;51.778;10.330;2023-02-11T05:22:55;1.40;99.90
3912;DHT22;1971;51.778;10.330;2023-02-11T05:25:25;1.30;99.90
3912;DHT22;1971;51.778;10.330;2023-02-11T05:27:55;1.40;99.90
3912;DHT22;1971;51.778;10.330;2023-02-11T05:30:25;1.30;99.90
3912;DHT22;1971;51.778;10.330;2023-02-11T05:32:55;1.40;99.90
3912;DHT22;1971;51.778;10.330;2023-02-11T05:35:25;1.10;99.90
3912;DHT22;1971;51.778;10.330;2023-02-11T05:37:57;1.40;99.90
3912;DHT22;1971;51.778;10.330;2023-02-11T05:40:28;1.30;99.90
3912;DHT22;1971;51.778;10.330;2023-02-11T05:42:57;1.50;99.90
3912;DHT22;1971;51.778;10.330;2023-02-11T05:45:28;1.20;99.90
3912;DHT22;1971;51.778;10.330;2023-02-11T05:47:58;1.20;99.90
3912;DHT22;1971;51.778;10.330;2023-02-11T05:50:28;1.40;99.90
3912;DHT22;1971;51.778;10.330;2023-02-11T05:53:06;1.40;99.90
3912;DHT22;1971;51.778;10.330;2023-02-11T05:55:36;1.20;99.90
3912;DHT22;1971;51.778;10.330;2023-02-11T05:58:07;1.30;99.90
3912;DHT22;1971;51.778;10.330;2023-02-11T06:00:37;1.40;99.90
3912;DHT22;1971;51.778;10.330;2023-02-11T06:03:07;1.30;99.90
3912;DHT22;1971;51.778;10.330;2023-02-11T06:05:37;1.20;99.90
3912;DHT22;1971;51.778;10.330;2023-02-11T06:08:11;1.40;99.90
3912;DHT22;1971;51.778;10.330;2023-02-11T06:10:43;1.20;99.90
3912;DHT22;1971;51.778;10.330;2023-02-11T06:13:13;1.30;99.90
3912;DHT22;1971;51.778;10.330;2023-02-11T06:15:44;1.30;99.90
3912;DHT22;1971;51.778;10.330;2023-02-11T06:18:15;1.20;99.90
3912;DHT22;1971;51.778;10.330;2023-02-11T06:20:45;1.50;99.90
3912;DHT22;1971;51.778;10.330;2023-02-11T06:23:20;1.50;99.90
3912;DHT22;1971;51.778;10.330;2023-02-11T06:25:50;1.30;99.90
3912;DHT22;1971;51.778;10.330;2023-02-11T06:28:20;1.40;99.90
3912;DHT22;1971;51.778;10.330;2023-02-11T06:30:51;1.40;99.90
3912;DHT22;1971;51.778;10.330;2023-02-11T06:33:21;1.20;99.90
3912;DHT22;1971;51.778;10.330;2023-02-11T06:35:52;1.20;99.90
3912;DHT22;1971;51.778;10.330;2023-02-11T06:38:24;1.30;99.90
3912;DHT22;1971;51.778;10.330;2023-02-11T06:40:54;1.30;99.90
3912;DHT22;1971;51.778;10.330;2023-02-11T06:43:24;1.40;99.90
3912;DHT22;1971;51.778;10.330;2023-02-11T06:45:55;1.10;99.90
3912;DHT22;1971;51.778;10.330;2023-02-11T06:48:25;1.10;99.90
3912;DHT22;1971;51.778;10.330;2023-02-11T06:50:55;1.10;99.90
3912;DHT22;1971;51.778;10.330;2023-02-11T06:53:28;1.40;99.90
3912;DHT22;1971;51.778;10.330;2023-02-11T06:56:01;1.30;99.90
3912;DHT22;1971;51.778;10.330;2023-02-11T06:58:32;1.20;99.90
3912;DHT22;1971;51.778;10.330;2023-02-11T07:01:07;1.30;99.90
3912;DHT22;1971;51.778;10.330;2023-02-11T07:03:40;1.50;99.90
3912;DHT22;1971;51.778;10.330;2023-02-11T07:06:13;1.50;99.90
3912;DHT22;1971;51.778;10.330;2023-02-11T07:08:46;1.30;99.90
3912;DHT22;1971;51.778;10.330;2023-02-11T07:11:19;1.40;99.90
3912;DHT22;1971;51.778;10.330;2023-02-11T07:13:51;1.30;99.90
3912;DHT22;1971;51.778;10.330;2023-02-11T07:16:21;1.10;99.90
3912;DHT22;1971;51.778;10.330;2023-02-11T07:18:52;1.20;99.90
3912;DHT22;1971;51.778;10.330;2023-02-11T07:21:23;1.10;99.90
3912;DHT22;1971;51.778;10.330;2023-02-11T07:23:56;1.10;99.90
3912;DHT22;1971;51.778;10.330;2023-02-11T07:26:26;1.20;99.90
3912;DHT22;1971;51.778;10.330;2023-02-11T07:28:56;1.40;99.90
3912;DHT22;1971;51.778;10.330;2023-02-11T07:31:29;1.60;99.90
3912;DHT22;1971;51.778;10.330;2023-02-11T07:34:01;1.20;99.90
3912;DHT22;1971;51.778;10.330;2023-02-11T07:36:31;1.30;99.90
3912;DHT22;1971;51.778;10.330;2023-02-11T07:39:07;1.60;99.90
3912;DHT22;1971;51.778;10.330;2023-02-11T07:41:37;1.30;99.90
3912;DHT22;1971;51.778;10.330;2023-02-11T07:44:07;1.30;99.90
3912;DHT22;1971;51.778;10.330;2023-02-11T07:46:38;1.40;99.90
3912;DHT22;1971;51.778;10.330;2023-02-11T07:49:09;1.50;99.90
3912;DHT22;1971;51.778;10.330;2023-02-11T07:51:39;1.70;99.90
3912;DHT22;1971;51.778;10.330;2023-02-11T07:54:12;1.40;99.90
3912;DHT22;1971;51.778;10.330;2023-02-11T07:56:42;1.50;99.90
3912;DHT22;1971;51.778;10.330;2023-02-11T07:59:12;1.70;99.90
3912;DHT22;1971;51.778;10.330;2023-02-11T08:01:43;1.40;99.90
3912;DHT22;1971;51.778;10.330;2023-02-11T08:04:13;1.50;99.90
3912;DHT22;1971;51.778;10.330;2023-02-11T08:06:43;1.70;99.90
3912;DHT22;1971;51.778;10.330;2023-02-11T08:09:16;1.40;99.90
3912;DHT22;1971;51.778;10.330;2023-02-11T08:11:47;1.50;99.90
3912;DHT22;1971;51.778;10.330;2023-02-11T08:14:17;1.60;99.90
3912;DHT22;1971;51.778;10.330;2023-02-11T08:16:47;1.50;99.90
3912;DHT22;1971;51.778;10.330;2023-02-11T08:19:17;1.60;99.90
3912;DHT22;1971;51.778;10.330;2023-02-11T08:21:47;1.60;99.90
3912;DHT22;1971;51.778;10.330;2023-02-11T08:24:19;1.80;99.90
3912;DHT22;1971;51.778;10.330;2023-02-11T08:26:50;1.50;99.90
3912;DHT22;1971;51.778;10.330;2023-02-11T08:29:20;1.60;99.90
3912;DHT22;1971;51.778;10.330;2023-02-11T08:31:50;1.60;99.90
3912;DHT22;1971;51.778;10.330;2023-02-11T08:34:20;1.80;99.90
3912;DHT22;1971;51.778;10.330;2023-02-11T08:36:50;1.60;99.90
3912;DHT22;1971;51.778;10.330;2023-02-11T08:39:23;1.50;99.90
3912;DHT22;1971;51.778;10.330;2023-02-11T08:41:54;1.90;99.90
3912;DHT22;1971;51.778;10.330;2023-02-11T08:44:24;2.00;99.90
3912;DHT22;1971;51.778;10.330;2023-02-11T08:46:54;1.80;99.90
3912;DHT22;1971;51.778;10.330;2023-02-11T08:49:24;1.70;99.90
3912;DHT22;1971;51.778;10.330;2023-02-11T08:51:56;1.70;99.90
3912;DHT22;1971;51.778;10.330;2023-02-11T08:54:32;1.90;99.90
3912;DHT22;1971;51.778;10.330;2023-02-11T08:57:03;1.90;99.90
3912;DHT22;1971;51.778;10.330;2023-02-11T08:59:33;2.00;99.90
3912;DHT22;1971;51.778;10.330;2023-02-11T09:02:08;1.80;99.90
3912;DHT22;1971;51.778;10.330;2023-02-11T09:04:39;1.70;99.90
3912;DHT22;1971;51.778;10.330;2023-02-11T09:07:09;2.00;99.90
3912;DHT22;1971;51.778;10.330;2023-02-11T09:09:41;1.80;99.90
3912;DHT22;1971;51.778;10.330;2023-02-11T09:12:14;1.90;99.90
3912;DHT22;1971;51.778;10.330;2023-02-11T09:14:44;1.80;99.90
3912;DHT22;1971;51.778;10.330;2023-02-11T09:17:14;1.90;99.90
3912;DHT22;1971;51.778;10.330;2023-02-11T09:19:44;1.70;99.90
3912;DHT22;1971;51.778;10.330;2023-02-11T09:22:14;1.90;99.90
3912;DHT22;1971;51.778;10.330;2023-02-11T09:24:47;1.90;99.90
3912;DHT22;1971;51.778;10.330;2023-02-11T09:27:17;1.90;99.90
3912;DHT22;1971;51.778;10.330;2023-02-11T09:29:47;1.80;99.90
3912;DHT22;1971;51.778;10.330;2023-02-11T09:32:17;1.90;99.90
3912;DHT22;1971;51.778;10.330;2023-02-11T09:34:46;1.90;99.90
3912;DHT22;1971;51.778;10.330;2023-02-11T09:37:17;1.90;99.90
3912;DHT22;1971;51.778;10.330;2023-02-11T09:39:49;1.90;99.90
3912;DHT22;1971;51.778;10.330;2023-02-11T09:42:36;1.90;99.90
3912;DHT22;1971;51.778;10.330;2023-02-11T09:45:12;2.10;99.90
3912;DHT22;1971;51.778;10.330;2023-02-11T09:47:52;2.10;99.90
3912;DHT22;1971;51.778;10.330;2023-02-11T09:50:27;2.00;99.90
3912;DHT22;1971;51.778;10.330;2023-02-11T09:53:00;2.30;99.90
3912;DHT22;1971;51.778;10.330;2023-02-11T09:55:35;2.10;99.90
3912;DHT22;1971;51.778;10.330;2023-02-11T09:58:11;2.10;99.90
3912;DHT22;1971;51.778;10.330;2023-02-11T10:00:44;2.00;99.90
3912;DHT22;1971;51.778;10.330;2023-02-11T10:03:33;2.20;99.90
3912;DHT22;1971;51.778;10.330;2023-02-11T10:06:35;2.20;99.90
3912;DHT22;1971;51.778;10.330;2023-02-11T10:09:23;2.00;99.90
3912;DHT22;1971;51.778;10.330;2023-02-11T10:12:09;2.40;99.90
3912;DHT22;1971;51.778;10.330;2023-02-11T10:15:11;2.30;99.90
3912;DHT22;1971;51.778;10.330;2023-02-11T10:17:50;2.30;99.90
3912;DHT22;1971;51.778;10.330;2023-02-11T10:20:30;2.40;99.90
3912;DHT22;1971;51.778;10.330;2023-02-11T10:23:08;2.20;99.90
3912;DHT22;1971;51.778;10.330;2023-02-11T10:25:42;2.40;99.90
3912;DHT22;1971;51.778;10.330;2023-02-11T10:28:23;2.10;99.90
3912;DHT22;1971;51.778;10.330;2023-02-11T10:30:57;2.20;99.90
3912;DHT22;1971;51.778;10.330;2023-02-11T10:33:30;2.30;99.90
3912;DHT22;1971;51.778;10.330;2023-02-11T10:36:03;2.30;99.90
3912;DHT22;1971;51.778;10.330;2023-02-11T10:38:43;2.10;99.90
3912;DHT22;1971;51.778;10.330;2023-02-11T10:41:19;2.40;99.90
3912;DHT22;1971;51.778;10.330;2023-02-11T10:43:53;2.40;99.90
3912;DHT22;1971;51.778;10.330;2023-02-11T10:46:28;2.70;99.90
3912;DHT22;1971;51.778;10.330;2023-02-11T10:49:34;2.70;99.90
3912;DHT22;1971;51.778;10.330;2023-02-11T10:52:13;2.70;99.90
3912;DHT22;1971;51.778;10.330;2023-02-11T10:55:16;2.60;99.90
3912;DHT22;1971;51.778;10.330;2023-02-11T10:58:23;2.80;99.90
3912;DHT22;1971;51.778;10.330;2023-02-11T11:01:02;2.60;99.90
3912;DHT22;1971;51.778;10.330;2023-02-11T11:03:55;3.10;99.90
3912;DHT22;1971;51.778;10.330;2023-02-11T11:06:30;2.70;99.90
3912;DHT22;1971;51.778;10.330;2023-02-11T11:09:08;2.60;99.90
3912;DHT22;1971;51.778;10.330;2023-02-11T11:12:31;2.80;99.90
3912;DHT22;1971;51.778;10.330;2023-02-11T11:15:45;2.90;99.90
3912;DHT22;1971;51.778;10.330;2023-02-11T11:18:43;3.00;99.90
3912;DHT22;1971;51.778;10.330;2023-02-11T11:21:33;3.00;99.90
3912;DHT22;1971;51.778;10.330;2023-02-11T11:24:48;3.40;99.90
3912;DHT22;1971;51.778;10.330;2023-02-11T11:28:35;3.10;99.90
3912;DHT22;1971;51.778;10.330;2023-02-11T11:31:45;3.00;99.90
3912;DHT22;1971;51.778;10.330;2023-02-11T11:35:38;3.10;99.90
3912;DHT22;1971;51.778;10.330;2023-02-11T11:40:07;3.30;99.90
3912;DHT22;1971;51.778;10.330;2023-02-11T11:42:35;3.30;99.90
3912;DHT22;1971;51.778;10.330;2023-02-11T11:45:23;3.30;99.90
3912;DHT22;1971;51.778;10.330;2023-02-11T11:48:30;3.10;99.90
3912;DHT22;1971;51.778;10.330;2023-02-11T11:51:18;3.40;99.90
3912;DHT22;1971;51.778;10.330;2023-02-11T11:54:27;3.60;99.90
3912;DHT22;1971;51.778;10.330;2023-02-11T11:57:38;3.60;99.90
3912;DHT22;1971;51.778;10.330;2023-02-11T12:01:14;3.50;99.90
3912;DHT22;1971;51.778;10.330;2023-02-11T12:04:53;3.40;99.90
3912;DHT22;1971;51.778;10.330;2023-02-11T12:08:38;3.70;99.90
3912;DHT22;1971;51.778;10.330;2023-02-11T12:11:28;3.40;99.90
3912;DHT22;1971;51.778;10.330;2023-02-11T12:14:46;3.50;99.90
3912;DHT22;1971;51.778;10.330;2023-02-11T12:22:40;3.60;99.90
3912;DHT22;1971;51.778;10.330;2023-02-11T12:32:47;3.70;99.90
3912;DHT22;1971;51.778;10.330;2023-02-11T12:38:42;3.60;99.90
3912;DHT22;1971;51.778;10.330;2023-02-11T12:45:03;3.80;99.90
3912;DHT22;1971;51.778;10.330;2023-02-11T12:47:47;4.10;99.90
3912;DHT22;1971;51.778;10.330;2023-02-11T12:50:26;3.70;99.90
3912;DHT22;1971;51.778;10.330;2023-02-11T12:53:12;3.70;99.90
3912;DHT22;1971;51.778;10.330;2023-02-11T12:55:49;3.80;99.90
3912;DHT22;1971;51.778;10.330;2023-02-11T12:58:22;3.90;99.90
3912;DHT22;1971;51.778;10.330;2023-02-11T13:01:18;4.00;99.90
3912;DHT22;1971;51.778;10.330;2023-02-11T13:03:54;3.90;99.90
3912;DHT22;1971;51.778;10.330;2023-02-11T13:06:30;4.00;99.90
3912;DHT22;1971;51.778;10.330;2023-02-11T13:09:04;3.80;99.90
3912;DHT22;1971;51.778;10.330;2023-02-11T13:11:41;3.90;99.90
3912;DHT22;1971;51.778;10.330;2023-02-11T13:14:24;3.80;99.90
3912;DHT22;1971;51.778;10.330;2023-02-11T13:16:55;4.10;99.90
3912;DHT22;1971;51.778;10.330;2023-02-11T13:19:35;4.00;99.90
3912;DHT22;1971;51.778;10.330;2023-02-11T13:22:11;3.70;99.90
3912;DHT22;1971;51.778;10.330;2023-02-11T13:24:47;4.10;99.90
3912;DHT22;1971;51.778;10.330;2023-02-11T13:28:28;3.80;99.90
3912;DHT22;1971;51.778;10.330;2023-02-11T13:30:26;4.00;99.90
3912;DHT22;1971;51.778;10.330;2023-02-11T13:33:05;4.10;99.90
3912;DHT22;1971;51.778;10.330;2023-02-11T13:36:04;3.80;99.90
3912;DHT22;1971;51.778;10.330;2023-02-11T13:38:39;4.00;99.90
3912;DHT22;1971;51.778;10.330;2023-02-11T13:41:16;3.80;99.90
3912;DHT22;1971;51.778;10.330;2023-02-11T13:43:57;3.80;99.90
3912;DHT22;1971;51.778;10.330;2023-02-11T13:46:29;3.70;99.90
3912;DHT22;1971;51.778;10.330;2023-02-11T13:48:59;3.90;99.90
3912;DHT22;1971;51.778;10.330;2023-02-11T13:51:38;3.90;99.90
3912;DHT22;1971;51.778;10.330;2023-02-11T13:54:21;3.70;99.90
3912;DHT22;1971;51.778;10.330;2023-02-11T14:03:29;3.80;99.90
3912;DHT22;1971;51.778;10.330;2023-02-11T14:06:20;3.70;99.90
3912;DHT22;1971;51.778;10.330;2023-02-11T14:09:33;4.00;99.90
3912;DHT22;1971;51.778;10.330;2023-02-11T14:12:23;3.80;99.90
3912;DHT22;1971;51.778;10.330;2023-02-11T14:17:43;3.80;99.90
3912;DHT22;1971;51.778;10.330;2023-02-11T14:20:41;4.10;99.90
3912;DHT22;1971;51.778;10.330;2023-02-11T14:23:23;4.00;99.90
3912;DHT22;1971;51.778;10.330;2023-02-11T14:26:07;3.90;99.90
3912;DHT22;1971;51.778;10.330;2023-02-11T14:28:47;3.90;99.90
3912;DHT22;1971;51.778;10.330;2023-02-11T14:31:27;3.80;99.90
3912;DHT22;1971;51.778;10.330;2023-02-11T14:34:36;4.00;99.90
3912;DHT22;1971;51.778;10.330;2023-02-11T14:37:19;3.70;99.90
3912;DHT22;1971;51.778;10.330;2023-02-11T14:40:02;3.80;99.90
3912;DHT22;1971;51.778;10.330;2023-02-11T14:42:44;3.70;99.90
3912;DHT22;1971;51.778;10.330;2023-02-11T14:45:18;3.80;99.90
3912;DHT22;1971;51.778;10.330;2023-02-11T14:47:55;4.10;99.90
3912;DHT22;1971;51.778;10.330;2023-02-11T14:50:33;3.80;99.90
3912;DHT22;1971;51.778;10.330;2023-02-11T14:53:10;4.10;99.90
3912;DHT22;1971;51.778;10.330;2023-02-11T14:55:45;3.90;99.90
3912;DHT22;1971;51.778;10.330;2023-02-11T14:58:21;3.90;99.90
3912;DHT22;1971;51.778;10.330;2023-02-11T15:00:55;3.80;99.90
3912;DHT22;1971;51.778;10.330;2023-02-11T15:03:42;3.80;99.90
3912;DHT22;1971;51.778;10.330;2023-02-11T15:06:23;4.10;99.90
3912;DHT22;1971;51.778;10.330;2023-02-11T15:09:00;4.10;99.90
3912;DHT22;1971;51.778;10.330;2023-02-11T15:11:48;4.20;99.90
3912;DHT22;1971;51.778;10.330;2023-02-11T15:14:48;4.00;99.90
3912;DHT22;1971;51.778;10.330;2023-02-11T15:17:47;4.10;99.90
3912;DHT22;1971;51.778;10.330;2023-02-11T15:20:30;4.10;99.90
3912;DHT22;1971;51.778;10.330;2023-02-11T15:23:19;3.90;99.90
3912;DHT22;1971;51.778;10.330;2023-02-11T15:25:54;4.00;99.90
3912;DHT22;1971;51.778;10.330;2023-02-11T15:32:22;4.10;99.90
3912;DHT22;1971;51.778;10.330;2023-02-11T15:34:54;4.10;99.90
3912;DHT22;1971;51.778;10.330;2023-02-11T15:37:26;4.20;99.90
3912;DHT22;1971;51.778;10.330;2023-02-11T15:40:10;4.30;99.90
3912;DHT22;1971;51.778;10.330;2023-02-11T15:42:55;4.20;99.90
3912;DHT22;1971;51.778;10.330;2023-02-11T15:45:42;4.30;99.90
3912;DHT22;1971;51.778;10.330;2023-02-11T15:48:31;4.10;99.90
3912;DHT22;1971;51.778;10.330;2023-02-11T15:51:10;4.20;99.90
3912;DHT22;1971;51.778;10.330;2023-02-11T15:53:47;3.90;99.90
3912;DHT22;1971;51.778;10.330;2023-02-11T15:56:21;4.10;99.90
3912;DHT22;1971;51.778;10.330;2023-02-11T15:58:58;3.80;99.90
3912;DHT22;1971;51.778;10.330;2023-02-11T16:01:30;4.10;99.90
3912;DHT22;1971;51.778;10.330;2023-02-11T16:04:04;3.80;99.90
3912;DHT22;1971;51.778;10.330;2023-02-11T16:06:36;3.60;99.90
3912;DHT22;1971;51.778;10.330;2023-02-11T16:09:22;3.80;99.90
3912;DHT22;1971;51.778;10.330;2023-02-11T16:11:56;4.10;99.90
3912;DHT22;1971;51.778;10.330;2023-02-11T16:14:29;4.40;99.90
3912;DHT22;1971;51.778;10.330;2023-02-11T16:17:05;4.00;99.90
3912;DHT22;1971;51.778;10.330;2023-02-11T16:19:45;4.40;99.90
3912;DHT22;1971;51.778;10.330;2023-02-11T16:22:18;4.10;99.90
3912;DHT22;1971;51.778;10.330;2023-02-11T16:24:52;4.30;99.90
3912;DHT22;1971;51.778;10.330;2023-02-11T16:27:25;3.90;99.90
3912;DHT22;1971;51.778;10.330;2023-02-11T16:29:57;3.90;99.90
3912;DHT22;1971;51.778;10.330;2023-02-11T16:32:28;4.20;99.90
3912;DHT22;1971;51.778;10.330;2023-02-11T16:35:06;4.00;99.90
3912;DHT22;1971;51.778;10.330;2023-02-11T16:37:39;4.20;99.90
3912;DHT22;1971;51.778;10.330;2023-02-11T16:40:11;3.80;99.90
3912;DHT22;1971;51.778;10.330;2023-02-11T16:42:41;3.90;99.90
3912;DHT22;1971;51.778;10.330;2023-02-11T16:45:11;4.30;99.90
3912;DHT22;1971;51.778;10.330;2023-02-11T16:47:42;4.00;99.90
3912;DHT22;1971;51.778;10.330;2023-02-11T16:50:22;3.80;99.90
3912;DHT22;1971;51.778;10.330;2023-02-11T16:52:52;4.30;99.90
3912;DHT22;1971;51.778;10.330;2023-02-11T16:55:25;4.30;99.90
3912;DHT22;1971;51.778;10.330;2023-02-11T16:57:55;4.20;99.90
3912;DHT22;1971;51.778;10.330;2023-02-11T17:00:25;4.20;99.90
3912;DHT22;1971;51.778;10.330;2023-02-11T17:02:55;4.30;99.90
3912;DHT22;1971;51.778;10.330;2023-02-11T17:05:29;4.20;99.90
3912;DHT22;1971;51.778;10.330;2023-02-11T17:08:19;4.10;99.90
3912;DHT22;1971;51.778;10.330;2023-02-11T17:10:49;4.20;99.90
3912;DHT22;1971;51.778;10.330;2023-02-11T17:13:20;4.20;99.90
3912;DHT22;1971;51.778;10.330;2023-02-11T17:15:50;4.00;99.90
3912;DHT22;1971;51.778;10.330;2023-02-11T17:18:20;4.20;99.90
3912;DHT22;1971;51.778;10.330;2023-02-11T17:20:53;4.40;99.90
3912;DHT22;1971;51.778;10.330;2023-02-11T17:23:23;4.50;99.90
3912;DHT22;1971;51.778;10.330;2023-02-11T17:25:54;4.40;99.90
3912;DHT22;1971;51.778;10.330;2023-02-11T17:28:24;4.40;99.90
3912;DHT22;1971;51.778;10.330;2023-02-11T17:30:54;4.60;99.90
3912;DHT22;1971;51.778;10.330;2023-02-11T17:33:26;4.70;99.90
3912;DHT22;1971;51.778;10.330;2023-02-11T17:36:03;4.70;99.90
3912;DHT22;1971;51.778;10.330;2023-02-11T17:38:33;4.40;99.90
3912;DHT22;1971;51.778;10.330;2023-02-11T17:41:04;4.10;99.90
3912;DHT22;1971;51.778;10.330;2023-02-11T17:43:34;4.30;99.90
3912;DHT22;1971;51.778;10.330;2023-02-11T17:46:05;4.50;99.90